sensor_id;sensor_type;location;lat;lon;timestamp;pressure;altitude;pressure_sealevel;temperature;humidity
79461;BME280;68929;42.666;23.324;2023-04-25T00:01:16;93776.59;;;14.11;67.65
79461;BME280;68929;42.666;23.324;2023-04-25T00:03:41;93789.13;;;13.79;69.10
79461;BME280;68929;42.666;23.324;2023-04-25T00:06:07;93765.44;;;14.09;68.96
79461;BME280;68929;42.666;23.324;2023-04-25T00:08:33;93774.34;;;14.29;68.14
79461;BME280;68929;42.666;23.324;2023-04-25T00:10:59;93742.88;;;14.16;68.36
79461;BME280;68929;42.666;23.324;2023-04-25T00:13:25;93754.22;;;14.43;68.48
79461;BME280;68929;42.666;23.324;2023-04-25T00:15:51;93758.22;;;14.41;68.08
79461;BME280;68929;42.666;23.324;2023-04-25T00:18:18;93742.09;;;14.16;68.08
79461;BME280;68929;42.666;23.324;2023-04-25T00:20:44;93717.69;;;13.82;68.75
79461;BME280;68929;42.666;23.324;2023-04-25T00:23:13;93733.91;;;13.86;68.98
79461;BME280;68929;42.666;23.324;2023-04-25T00:25:43;93724.38;;;13.85;68.47
79461;BME280;68929;42.666;23.324;2023-04-25T00:28:10;93721.34;;;14.13;67.82
79461;BME280;68929;42.666;23.324;2023-04-25T00:30:35;93735.88;;;14.42;68.15
79461;BME280;68929;42.666;23.324;2023-04-25T00:33:00;93716.19;;;14.33;66.98
79461;BME280;68929;42.666;23.324;2023-04-25T00:35:26;93722.13;;;14.55;66.74
79461;BME280;68929;42.666;23.324;2023-04-25T00:37:51;93710.66;;;14.50;66.88
79461;BME280;68929;42.666;23.324;2023-04-25T00:40:17;93716.31;;;14.73;66.15
79461;BME280;68929;42.666;23.324;2023-04-25T00:42:42;93729.09;;;14.71;67.09
79461;BME280;68929;42.666;23.324;2023-04-25T00:45:10;93693.13;;;14.59;66.06
79461;BME280;68929;42.666;23.324;2023-04-25T00:47:38;93731.19;;;14.59;66.31
79461;BME280;68929;42.666;23.324;2023-04-25T00:50:06;93690.25;;;14.65;66.15
79461;BME280;68929;42.666;23.324;2023-04-25T00:52:31;93713.06;;;14.51;66.41
79461;BME280;68929;42.666;23.324;2023-04-25T00:54:57;93727.75;;;14.64;66.73
79461;BME280;68929;42.666;23.324;2023-04-25T00:57:23;93707.00;;;14.71;65.28
79461;BME280;68929;42.666;23.324;2023-04-25T00:59:51;93716.31;;;14.73;65.79
79461;BME280;68929;42.666;23.324;2023-04-25T01:02:17;93726.66;;;14.65;65.82
79461;BME280;68929;42.666;23.324;2023-04-25T01:04:43;93716.31;;;14.73;65.83
79461;BME280;68929;42.666;23.324;2023-04-25T01:07:09;93715.75;;;14.61;66.43
79461;BME280;68929;42.666;23.324;2023-04-25T01:09:35;93705.16;;;14.81;65.47
79461;BME280;68929;42.666;23.324;2023-04-25T01:12:01;93693.94;;;14.59;65.26
79461;BME280;68929;42.666;23.324;2023-04-25T01:14:26;93674.53;;;14.54;66.50
79461;BME280;68929;42.666;23.324;2023-04-25T01:16:52;93704.53;;;14.49;66.68
79461;BME280;68929;42.666;23.324;2023-04-25T01:19:18;93698.81;;;14.82;65.35
79461;BME280;68929;42.666;23.324;2023-04-25T01:21:45;93698.75;;;14.67;66.00
79461;BME280;68929;42.666;23.324;2023-04-25T01:24:11;93703.03;;;14.68;65.79
79461;BME280;68929;42.666;23.324;2023-04-25T01:26:36;93686.31;;;14.83;65.34
79461;BME280;68929;42.666;23.324;2023-04-25T01:29:04;93679.66;;;14.80;65.24
79461;BME280;68929;42.666;23.324;2023-04-25T01:31:30;93667.41;;;14.79;64.82
79461;BME280;68929;42.666;23.324;2023-04-25T01:33:56;93672.47;;;14.81;65.13
79461;BME280;68929;42.666;23.324;2023-04-25T01:36:22;93686.00;;;14.64;65.37
79461;BME280;68929;42.666;23.324;2023-04-25T01:38:47;93689.63;;;14.43;65.93
79461;BME280;68929;42.666;23.324;2023-04-25T01:41:14;93678.81;;;14.08;67.49
79461;BME280;68929;42.666;23.324;2023-04-25T01:43:39;93670.34;;;14.21;65.99
79461;BME280;68929;42.666;23.324;2023-04-25T01:46:06;93693.91;;;14.49;66.16
79461;BME280;68929;42.666;23.324;2023-04-25T01:48:31;93709.41;;;14.72;65.26
79461;BME280;68929;42.666;23.324;2023-04-25T01:50:57;93694.53;;;14.76;65.18
79461;BME280;68929;42.666;23.324;2023-04-25T01:53:23;93696.69;;;14.84;64.43
79461;BME280;68929;42.666;23.324;2023-04-25T01:55:49;93685.94;;;14.54;65.29
79461;BME280;68929;42.666;23.324;2023-04-25T01:58:14;93702.25;;;14.21;65.42
79461;BME280;68929;42.666;23.324;2023-04-25T02:00:39;93716.78;;;14.50;65.94
79461;BME280;68929;42.666;23.324;2023-04-25T02:03:06;93692.81;;;14.40;65.96
79461;BME280;68929;42.666;23.324;2023-04-25T02:05:36;93702.97;;;14.53;66.30
79461;BME280;68929;42.666;23.324;2023-04-25T02:08:02;93689.13;;;14.56;65.49
79461;BME280;68929;42.666;23.324;2023-04-25T02:10:28;93684.41;;;14.73;64.73
79461;BME280;68929;42.666;23.324;2023-04-25T02:12:53;93688.44;;;14.86;64.38
79461;BME280;68929;42.666;23.324;2023-04-25T02:15:19;93668.72;;;14.82;63.93
79461;BME280;68929;42.666;23.324;2023-04-25T02:17:44;93677.16;;;14.49;65.43
79461;BME280;68929;42.666;23.324;2023-04-25T02:20:10;93661.44;;;14.37;65.37
79461;BME280;68929;42.666;23.324;2023-04-25T02:22:36;93658.28;;;14.50;65.61
79461;BME280;68929;42.666;23.324;2023-04-25T02:25:02;93667.38;;;14.69;65.05
79461;BME280;68929;42.666;23.324;2023-04-25T02:27:30;93644.75;;;14.62;65.10
79461;BME280;68929;42.666;23.324;2023-04-25T02:29:55;93672.19;;;14.72;65.33
79461;BME280;68929;42.666;23.324;2023-04-25T02:32:21;93650.31;;;14.55;65.15
79461;BME280;68929;42.666;23.324;2023-04-25T02:34:46;93645.72;;;14.35;65.60
79461;BME280;68929;42.666;23.324;2023-04-25T02:37:13;93666.81;;;14.57;64.46
79461;BME280;68929;42.666;23.324;2023-04-25T02:39:38;93642.84;;;14.52;64.85
79461;BME280;68929;42.666;23.324;2023-04-25T02:42:04;93643.91;;;14.41;65.00
79461;BME280;68929;42.666;23.324;2023-04-25T02:44:29;93658.78;;;14.37;64.92
79461;BME280;68929;42.666;23.324;2023-04-25T02:46:55;93633.47;;;13.78;67.46
79461;BME280;68929;42.666;23.324;2023-04-25T02:49:20;93638.56;;;13.84;66.05
79461;BME280;68929;42.666;23.324;2023-04-25T02:51:45;93643.69;;;14.01;66.72
79461;BME280;68929;42.666;23.324;2023-04-25T02:54:11;93637.34;;;14.07;66.60
79461;BME280;68929;42.666;23.324;2023-04-25T02:56:36;93637.94;;;14.24;66.45
79461;BME280;68929;42.666;23.324;2023-04-25T02:59:02;93628.38;;;14.23;65.93
79461;BME280;68929;42.666;23.324;2023-04-25T03:01:27;93643.78;;;14.21;65.35
79461;BME280;68929;42.666;23.324;2023-04-25T03:03:52;93635.75;;;14.06;65.98
79461;BME280;68929;42.666;23.324;2023-04-25T03:06:18;93624.94;;;14.22;65.83
79461;BME280;68929;42.666;23.324;2023-04-25T03:08:43;93646.84;;;13.93;67.45
79461;BME280;68929;42.666;23.324;2023-04-25T03:11:09;93636.97;;;14.40;65.84
79461;BME280;68929;42.666;23.324;2023-04-25T03:13:34;93629.09;;;14.08;66.79
79461;BME280;68929;42.666;23.324;2023-04-25T03:16:00;93601.06;;;13.76;67.68
79461;BME280;68929;42.666;23.324;2023-04-25T03:18:25;93610.50;;;14.03;66.48
79461;BME280;68929;42.666;23.324;2023-04-25T03:20:50;93629.28;;;13.92;67.18
79461;BME280;68929;42.666;23.324;2023-04-25T03:23:16;93630.56;;;13.79;67.02
79461;BME280;68929;42.666;23.324;2023-04-25T03:25:41;93637.81;;;13.94;67.32
79461;BME280;68929;42.666;23.324;2023-04-25T03:28:07;93607.91;;;13.61;67.00
79461;BME280;68929;42.666;23.324;2023-04-25T03:30:33;93623.53;;;13.58;68.50
79461;BME280;68929;42.666;23.324;2023-04-25T03:32:58;93608.28;;;13.38;69.51
79461;BME280;68929;42.666;23.324;2023-04-25T03:35:24;93626.72;;;14.07;66.97
79461;BME280;68929;42.666;23.324;2023-04-25T03:37:50;93606.00;;;14.04;67.08
79461;BME280;68929;42.666;23.324;2023-04-25T03:40:15;93590.63;;;14.21;65.81
79461;BME280;68929;42.666;23.324;2023-04-25T03:42:40;93627.31;;;14.24;67.05
79461;BME280;68929;42.666;23.324;2023-04-25T03:45:06;93637.56;;;14.00;65.97
79461;BME280;68929;42.666;23.324;2023-04-25T03:47:32;93630.31;;;13.81;68.48
79461;BME280;68929;42.666;23.324;2023-04-25T03:49:57;93603.59;;;14.12;66.49
79461;BME280;68929;42.666;23.324;2023-04-25T03:52:23;93613.09;;;14.65;65.41
79461;BME280;68929;42.666;23.324;2023-04-25T03:54:48;93612.56;;;14.63;65.73
79461;BME280;68929;42.666;23.324;2023-04-25T03:57:14;93624.88;;;14.89;64.49
79461;BME280;68929;42.666;23.324;2023-04-25T03:59:39;93609.91;;;14.53;65.87
79461;BME280;68929;42.666;23.324;2023-04-25T04:02:05;93619.81;;;14.11;67.22
79461;BME280;68929;42.666;23.324;2023-04-25T04:04:30;93620.63;;;13.59;69.28
79461;BME280;68929;42.666;23.324;2023-04-25T04:06:55;93614.97;;;13.93;68.10
79461;BME280;68929;42.666;23.324;2023-04-25T04:09:21;93647.47;;;14.10;66.94
79461;BME280;68929;42.666;23.324;2023-04-25T04:11:47;93643.19;;;14.04;67.95
79461;BME280;68929;42.666;23.324;2023-04-25T04:14:12;93627.16;;;14.40;67.07
79461;BME280;68929;42.666;23.324;2023-04-25T04:16:37;93648.25;;;14.72;66.49
79461;BME280;68929;42.666;23.324;2023-04-25T04:19:03;93647.22;;;14.98;65.01
79461;BME280;68929;42.666;23.324;2023-04-25T04:21:28;93611.56;;;14.94;64.16
79461;BME280;68929;42.666;23.324;2023-04-25T04:23:53;93640.28;;;14.87;65.01
79461;BME280;68929;42.666;23.324;2023-04-25T04:26:23;93635.88;;;13.79;66.95
79461;BME280;68929;42.666;23.324;2023-04-25T04:28:49;93632.19;;;13.43;70.69
79461;BME280;68929;42.666;23.324;2023-04-25T04:31:16;93636.41;;;13.39;70.97
79461;BME280;68929;42.666;23.324;2023-04-25T04:33:43;93649.22;;;13.94;68.85
79461;BME280;68929;42.666;23.324;2023-04-25T04:36:09;93632.63;;;14.24;67.94
79461;BME280;68929;42.666;23.324;2023-04-25T04:38:35;93642.28;;;14.40;66.82
79461;BME280;68929;42.666;23.324;2023-04-25T04:41:01;93646.81;;;14.39;66.27
79461;BME280;68929;42.666;23.324;2023-04-25T04:43:27;93620.84;;;14.77;65.95
79461;BME280;68929;42.666;23.324;2023-04-25T04:45:53;93631.38;;;14.36;66.45
79461;BME280;68929;42.666;23.324;2023-04-25T04:48:21;93641.28;;;14.61;65.82
79461;BME280;68929;42.666;23.324;2023-04-25T04:50:47;93618.19;;;14.82;65.28
79461;BME280;68929;42.666;23.324;2023-04-25T04:53:12;93656.81;;;15.19;63.97
79461;BME280;68929;42.666;23.324;2023-04-25T04:55:43;93645.66;;;15.23;63.78
79461;BME280;68929;42.666;23.324;2023-04-25T04:58:09;93660.25;;;14.95;62.98
79461;BME280;68929;42.666;23.324;2023-04-25T05:00:34;93641.91;;;14.93;63.61
79461;BME280;68929;42.666;23.324;2023-04-25T05:02:59;93658.94;;;15.28;62.59
79461;BME280;68929;42.666;23.324;2023-04-25T05:05:25;93667.44;;;15.04;64.45
79461;BME280;68929;42.666;23.324;2023-04-25T05:07:51;93675.31;;;14.54;66.19
79461;BME280;68929;42.666;23.324;2023-04-25T05:10:19;93663.34;;;14.52;65.82
79461;BME280;68929;42.666;23.324;2023-04-25T05:12:47;93642.16;;;14.97;64.57
79461;BME280;68929;42.666;23.324;2023-04-25T05:15:18;93671.09;;;14.63;63.88
79461;BME280;68929;42.666;23.324;2023-04-25T05:17:43;93678.00;;;14.69;67.06
79461;BME280;68929;42.666;23.324;2023-04-25T05:20:09;93662.03;;;14.59;66.40
79461;BME280;68929;42.666;23.324;2023-04-25T05:22:40;93667.72;;;15.03;65.44
79461;BME280;68929;42.666;23.324;2023-04-25T05:25:08;93651.47;;;14.89;65.62
79461;BME280;68929;42.666;23.324;2023-04-25T05:27:36;93644.81;;;15.02;65.20
79461;BME280;68929;42.666;23.324;2023-04-25T05:30:02;93665.88;;;15.18;64.61
79461;BME280;68929;42.666;23.324;2023-04-25T05:32:27;93668.78;;;15.17;65.58
79461;BME280;68929;42.666;23.324;2023-04-25T05:35:04;93670.09;;;15.14;65.13
79461;BME280;68929;42.666;23.324;2023-04-25T05:37:43;93667.47;;;15.19;63.55
79461;BME280;68929;42.666;23.324;2023-04-25T05:40:09;93679.22;;;15.44;63.59
79461;BME280;68929;42.666;23.324;2023-04-25T05:42:34;93655.50;;;15.52;63.75
79461;BME280;68929;42.666;23.324;2023-04-25T05:45:00;93683.50;;;15.45;63.44
79461;BME280;68929;42.666;23.324;2023-04-25T05:47:26;93675.97;;;15.16;65.84
79461;BME280;68929;42.666;23.324;2023-04-25T05:49:51;93671.72;;;15.05;65.66
79461;BME280;68929;42.666;23.324;2023-04-25T05:52:17;93644.56;;;15.08;63.73
79461;BME280;68929;42.666;23.324;2023-04-25T05:54:42;93654.44;;;15.48;63.27
79461;BME280;68929;42.666;23.324;2023-04-25T05:57:32;93664.84;;;15.45;63.99
79461;BME280;68929;42.666;23.324;2023-04-25T05:59:57;93668.53;;;15.23;64.22
79461;BME280;68929;42.666;23.324;2023-04-25T06:02:23;93668.84;;;15.57;62.38
79461;BME280;68929;42.666;23.324;2023-04-25T06:04:51;93683.50;;;15.50;63.27
79461;BME280;68929;42.666;23.324;2023-04-25T06:07:18;93679.19;;;15.34;65.34
79461;BME280;68929;42.666;23.324;2023-04-25T06:09:57;93657.38;;;15.27;66.29
79461;BME280;68929;42.666;23.324;2023-04-25T06:12:42;93666.88;;;14.87;66.16
79461;BME280;68929;42.666;23.324;2023-04-25T06:15:08;93669.88;;;15.16;65.53
79461;BME280;68929;42.666;23.324;2023-04-25T06:17:35;93630.75;;;15.27;62.76
79461;BME280;68929;42.666;23.324;2023-04-25T06:20:00;93675.44;;;15.40;63.38
79461;BME280;68929;42.666;23.324;2023-04-25T06:22:26;93684.50;;;15.23;64.27
79461;BME280;68929;42.666;23.324;2023-04-25T06:24:52;93677.59;;;15.33;63.54
79461;BME280;68929;42.666;23.324;2023-04-25T06:27:23;93662.94;;;15.15;63.42
79461;BME280;68929;42.666;23.324;2023-04-25T06:29:48;93676.28;;;15.35;63.97
79461;BME280;68929;42.666;23.324;2023-04-25T06:32:13;93675.97;;;15.42;63.81
79461;BME280;68929;42.666;23.324;2023-04-25T06:34:39;93688.53;;;15.76;61.96
79461;BME280;68929;42.666;23.324;2023-04-25T06:37:04;93679.22;;;15.64;62.84
79461;BME280;68929;42.666;23.324;2023-04-25T06:39:33;93689.28;;;16.07;62.29
79461;BME280;68929;42.666;23.324;2023-04-25T06:41:58;93656.00;;;15.79;61.89
79461;BME280;68929;42.666;23.324;2023-04-25T06:44:27;93697.56;;;15.95;63.33
79461;BME280;68929;42.666;23.324;2023-04-25T06:46:54;93685.59;;;15.93;60.51
79461;BME280;68929;42.666;23.324;2023-04-25T06:49:20;93684.50;;;15.94;60.53
79461;BME280;68929;42.666;23.324;2023-04-25T06:51:53;93698.34;;;16.16;61.29
79461;BME280;68929;42.666;23.324;2023-04-25T06:54:19;93691.84;;;16.42;60.67
79461;BME280;68929;42.666;23.324;2023-04-25T06:56:44;93678.56;;;16.27;59.29
79461;BME280;68929;42.666;23.324;2023-04-25T06:59:12;93658.34;;;16.16;60.85
79461;BME280;68929;42.666;23.324;2023-04-25T07:01:37;93674.50;;;16.45;60.49
79461;BME280;68929;42.666;23.324;2023-04-25T07:04:11;93679.91;;;16.25;61.41
79461;BME280;68929;42.666;23.324;2023-04-25T07:06:36;93665.75;;;16.29;61.09
79461;BME280;68929;42.666;23.324;2023-04-25T07:09:16;93669.97;;;16.55;57.99
79461;BME280;68929;42.666;23.324;2023-04-25T07:11:41;93701.44;;;16.48;61.46
79461;BME280;68929;42.666;23.324;2023-04-25T07:14:07;93697.25;;;16.22;60.56
79461;BME280;68929;42.666;23.324;2023-04-25T07:16:32;93681.22;;;16.27;61.30
79461;BME280;68929;42.666;23.324;2023-04-25T07:18:58;93699.06;;;16.32;61.52
79461;BME280;68929;42.666;23.324;2023-04-25T07:21:24;93678.53;;;16.32;60.42
79461;BME280;68929;42.666;23.324;2023-04-25T07:23:51;93688.69;;;16.35;60.07
79461;BME280;68929;42.666;23.324;2023-04-25T07:26:16;93656.69;;;16.30;60.02
79461;BME280;68929;42.666;23.324;2023-04-25T07:28:46;93691.34;;;16.30;59.20
79461;BME280;68929;42.666;23.324;2023-04-25T07:31:16;93672.16;;;16.33;59.53
79461;BME280;68929;42.666;23.324;2023-04-25T07:33:43;93670.50;;;16.52;57.71
79461;BME280;68929;42.666;23.324;2023-04-25T07:36:16;93678.59;;;16.22;60.78
79461;BME280;68929;42.666;23.324;2023-04-25T07:38:41;93677.97;;;16.40;59.77
79461;BME280;68929;42.666;23.324;2023-04-25T07:41:07;93666.22;;;16.46;59.75
79461;BME280;68929;42.666;23.324;2023-04-25T07:43:41;93662.28;;;16.93;58.62
79461;BME280;68929;42.666;23.324;2023-04-25T07:46:13;93662.28;;;16.93;57.60
79461;BME280;68929;42.666;23.324;2023-04-25T07:48:38;93666.97;;;16.67;59.83
79461;BME280;68929;42.666;23.324;2023-04-25T07:51:04;93670.88;;;16.90;59.23
79461;BME280;68929;42.666;23.324;2023-04-25T07:53:44;93659.38;;;16.89;56.50
79461;BME280;68929;42.666;23.324;2023-04-25T07:56:24;93677.13;;;17.14;56.87
79461;BME280;68929;42.666;23.324;2023-04-25T07:59:00;93643.63;;;16.88;58.49
79461;BME280;68929;42.666;23.324;2023-04-25T08:01:29;93648.88;;;17.03;57.41
79461;BME280;68929;42.666;23.324;2023-04-25T08:03:54;93632.44;;;16.86;57.05
79461;BME280;68929;42.666;23.324;2023-04-25T08:06:19;93660.00;;;17.20;57.74
79461;BME280;68929;42.666;23.324;2023-04-25T08:08:45;93657.06;;;17.55;58.52
79461;BME280;68929;42.666;23.324;2023-04-25T08:11:16;93613.50;;;17.54;53.10
79461;BME280;68929;42.666;23.324;2023-04-25T08:13:41;93661.28;;;17.61;54.46
79461;BME280;68929;42.666;23.324;2023-04-25T08:16:16;93644.75;;;17.59;55.70
79461;BME280;68929;42.666;23.324;2023-04-25T08:18:53;93657.56;;;17.62;56.04
79461;BME280;68929;42.666;23.324;2023-04-25T08:21:35;93658.00;;;17.69;55.44
79461;BME280;68929;42.666;23.324;2023-04-25T08:24:03;93639.47;;;17.54;53.06
79461;BME280;68929;42.666;23.324;2023-04-25T08:26:29;93634.66;;;17.51;55.25
79461;BME280;68929;42.666;23.324;2023-04-25T08:29:06;93634.31;;;17.91;52.10
79461;BME280;68929;42.666;23.324;2023-04-25T08:31:42;93603.06;;;17.24;55.14
79461;BME280;68929;42.666;23.324;2023-04-25T08:34:25;93637.56;;;17.21;53.24
79461;BME280;68929;42.666;23.324;2023-04-25T08:36:51;93634.69;;;17.07;53.97
79461;BME280;68929;42.666;23.324;2023-04-25T08:39:17;93634.41;;;17.14;55.71
79461;BME280;68929;42.666;23.324;2023-04-25T08:41:43;93655.25;;;17.07;53.78
79461;BME280;68929;42.666;23.324;2023-04-25T08:44:10;93666.13;;;16.76;53.63
79461;BME280;68929;42.666;23.324;2023-04-25T08:46:38;93668.56;;;16.68;58.30
79461;BME280;68929;42.666;23.324;2023-04-25T08:49:10;93648.50;;;16.75;56.63
79461;BME280;68929;42.666;23.324;2023-04-25T08:51:44;93656.91;;;16.54;57.41
79461;BME280;68929;42.666;23.324;2023-04-25T08:54:15;93645.38;;;16.58;57.93
79461;BME280;68929;42.666;23.324;2023-04-25T08:56:45;93646.13;;;16.74;56.66
79461;BME280;68929;42.666;23.324;2023-04-25T08:59:12;93637.53;;;16.82;58.40
79461;BME280;68929;42.666;23.324;2023-04-25T09:01:37;93640.75;;;17.56;56.84
79461;BME280;68929;42.666;23.324;2023-04-25T09:04:07;93601.13;;;17.92;54.45
79461;BME280;68929;42.666;23.324;2023-04-25T09:06:33;93598.44;;;17.92;53.17
79461;BME280;68929;42.666;23.324;2023-04-25T09:09:03;93613.38;;;18.46;53.95
79461;BME280;68929;42.666;23.324;2023-04-25T09:11:30;93608.63;;;18.80;52.81
79461;BME280;68929;42.666;23.324;2023-04-25T09:19:36;93611.47;;;18.88;51.43
79461;BME280;68929;42.666;23.324;2023-04-25T09:22:07;93616.31;;;18.68;52.98
79461;BME280;68929;42.666;23.324;2023-04-25T09:24:40;93617.63;;;18.89;52.56
79461;BME280;68929;42.666;23.324;2023-04-25T09:27:07;93592.44;;;18.05;51.09
79461;BME280;68929;42.666;23.324;2023-04-25T09:29:35;93602.31;;;17.81;53.37
79461;BME280;68929;42.666;23.324;2023-04-25T09:32:24;93603.63;;;17.21;54.63
79461;BME280;68929;42.666;23.324;2023-04-25T09:34:56;93603.25;;;16.99;55.90
79461;BME280;68929;42.666;23.324;2023-04-25T09:39:54;93608.22;;;17.78;53.43
79461;BME280;68929;42.666;23.324;2023-04-25T09:42:24;93628.88;;;18.25;52.60
79461;BME280;68929;42.666;23.324;2023-04-25T09:44:56;93620.78;;;18.54;53.12
79461;BME280;68929;42.666;23.324;2023-04-25T09:47:25;93610.75;;;18.64;49.14
79461;BME280;68929;42.666;23.324;2023-04-25T09:49:53;93587.06;;;18.53;51.31
79461;BME280;68929;42.666;23.324;2023-04-25T09:52:23;93606.03;;;19.12;50.58
79461;BME280;68929;42.666;23.324;2023-04-25T09:54:50;93622.63;;;19.14;50.62
79461;BME280;68929;42.666;23.324;2023-04-25T09:57:22;93611.75;;;19.05;52.14
79461;BME280;68929;42.666;23.324;2023-04-25T10:00:00;93619.28;;;19.03;52.93
79461;BME280;68929;42.666;23.324;2023-04-25T10:02:26;93610.31;;;18.33;52.22
79461;BME280;68929;42.666;23.324;2023-04-25T10:04:55;93621.34;;;18.27;56.27
79461;BME280;68929;42.666;23.324;2023-04-25T10:07:25;93610.97;;;18.20;55.08
79461;BME280;68929;42.666;23.324;2023-04-25T10:09:58;93592.28;;;17.68;55.08
79461;BME280;68929;42.666;23.324;2023-04-25T10:12:34;93611.50;;;17.70;54.95
79461;BME280;68929;42.666;23.324;2023-04-25T10:15:00;93635.94;;;17.58;56.38
79461;BME280;68929;42.666;23.324;2023-04-25T10:17:27;93645.75;;;16.91;56.51
79461;BME280;68929;42.666;23.324;2023-04-25T10:19:55;93639.78;;;15.36;57.16
79461;BME280;68929;42.666;23.324;2023-04-25T10:25:02;93615.00;;;14.80;61.47
79461;BME280;68929;42.666;23.324;2023-04-25T10:27:32;93607.31;;;15.39;63.46
79461;BME280;68929;42.666;23.324;2023-04-25T10:30:14;93588.59;;;16.58;56.12
79461;BME280;68929;42.666;23.324;2023-04-25T10:32:42;93600.31;;;17.68;50.55
79461;BME280;68929;42.666;23.324;2023-04-25T10:35:25;93582.94;;;18.18;51.15
79461;BME280;68929;42.666;23.324;2023-04-25T10:38:04;93608.38;;;19.00;45.26
79461;BME280;68929;42.666;23.324;2023-04-25T10:40:32;93586.84;;;19.24;44.94
79461;BME280;68929;42.666;23.324;2023-04-25T10:43:35;93613.69;;;20.69;44.85
79461;BME280;68929;42.666;23.324;2023-04-25T10:46:27;93592.59;;;19.81;43.60
79461;BME280;68929;42.666;23.324;2023-04-25T10:48:58;93607.69;;;18.52;45.43
79461;BME280;68929;42.666;23.324;2023-04-25T10:51:25;93613.19;;;17.61;47.54
79461;BME280;68929;42.666;23.324;2023-04-25T10:56:21;93605.56;;;17.49;53.42
79461;BME280;68929;42.666;23.324;2023-04-25T10:58:48;93591.75;;;17.37;49.22
79461;BME280;68929;42.666;23.324;2023-04-25T11:01:14;93601.53;;;17.47;46.97
79461;BME280;68929;42.666;23.324;2023-04-25T11:03:41;93589.53;;;17.49;46.88
79461;BME280;68929;42.666;23.324;2023-04-25T11:09:02;93574.66;;;17.67;43.47
79461;BME280;68929;42.666;23.324;2023-04-25T11:11:28;93587.81;;;17.58;49.21
79461;BME280;68929;42.666;23.324;2023-04-25T11:13:54;93571.38;;;17.75;44.78
79461;BME280;68929;42.666;23.324;2023-04-25T11:16:24;93572.53;;;17.35;45.23
79461;BME280;68929;42.666;23.324;2023-04-25T11:18:57;93558.81;;;17.13;44.60
79461;BME280;68929;42.666;23.324;2023-04-25T11:21:23;93590.94;;;17.37;48.11
79461;BME280;68929;42.666;23.324;2023-04-25T11:23:57;93557.22;;;16.78;46.84
79461;BME280;68929;42.666;23.324;2023-04-25T11:26:30;93567.41;;;16.71;47.44
79461;BME280;68929;42.666;23.324;2023-04-25T11:28:59;93567.34;;;16.82;46.40
79461;BME280;68929;42.666;23.324;2023-04-25T11:31:25;93584.34;;;16.96;47.92
79461;BME280;68929;42.666;23.324;2023-04-25T11:34:00;93575.34;;;16.82;48.33
79461;BME280;68929;42.666;23.324;2023-04-25T11:36:35;93559.28;;;16.43;47.19
79461;BME280;68929;42.666;23.324;2023-04-25T11:39:03;93587.34;;;16.30;49.70
79461;BME280;68929;42.666;23.324;2023-04-25T11:41:28;93598.06;;;16.15;50.57
79461;BME280;68929;42.666;23.324;2023-04-25T11:43:57;93613.09;;;15.86;51.54
79461;BME280;68929;42.666;23.324;2023-04-25T11:46:22;93620.63;;;15.49;50.68
79461;BME280;68929;42.666;23.324;2023-04-25T11:48:48;93601.44;;;14.76;52.32
79461;BME280;68929;42.666;23.324;2023-04-25T11:51:23;93614.13;;;14.49;59.40
79461;BME280;68929;42.666;23.324;2023-04-25T11:53:52;93586.97;;;13.75;63.51
79461;BME280;68929;42.666;23.324;2023-04-25T11:56:17;93625.00;;;13.86;66.54
79461;BME280;68929;42.666;23.324;2023-04-25T12:03:53;93582.81;;;15.16;64.97
79461;BME280;68929;42.666;23.324;2023-04-25T12:06:18;93591.06;;;16.39;59.94
79461;BME280;68929;42.666;23.324;2023-04-25T12:09:07;93557.69;;;16.86;57.52
79461;BME280;68929;42.666;23.324;2023-04-25T12:11:42;93588.47;;;17.12;57.32
79461;BME280;68929;42.666;23.324;2023-04-25T12:14:09;93554.59;;;17.07;57.01
79461;BME280;68929;42.666;23.324;2023-04-25T12:16:46;93583.53;;;17.63;55.92
79461;BME280;68929;42.666;23.324;2023-04-25T12:19:15;93578.59;;;17.75;56.01
79461;BME280;68929;42.666;23.324;2023-04-25T12:21:42;93558.72;;;17.23;54.64
79461;BME280;68929;42.666;23.324;2023-04-25T12:24:23;93578.53;;;17.22;53.84
79461;BME280;68929;42.666;23.324;2023-04-25T12:26:54;93568.56;;;16.99;57.96
79461;BME280;68929;42.666;23.324;2023-04-25T12:29:27;93548.03;;;16.95;54.50
79461;BME280;68929;42.666;23.324;2023-04-25T12:31:53;93575.03;;;17.22;57.69
79461;BME280;68929;42.666;23.324;2023-04-25T12:34:20;93544.13;;;17.16;55.65
79461;BME280;68929;42.666;23.324;2023-04-25T12:36:52;93619.66;;;16.77;53.34
79461;BME280;68929;42.666;23.324;2023-04-25T12:39:22;93590.47;;;15.78;55.44
79461;BME280;68929;42.666;23.324;2023-04-25T12:41:49;93622.19;;;15.04;58.83
79461;BME280;68929;42.666;23.324;2023-04-25T12:44:15;93624.84;;;14.79;62.13
79461;BME280;68929;42.666;23.324;2023-04-25T12:46:41;93630.38;;;14.58;62.62
79461;BME280;68929;42.666;23.324;2023-04-25T12:49:07;93641.56;;;14.03;64.98
79461;BME280;68929;42.666;23.324;2023-04-25T12:51:42;93635.22;;;14.09;67.92
79461;BME280;68929;42.666;23.324;2023-04-25T12:54:08;93637.91;;;14.14;65.52
79461;BME280;68929;42.666;23.324;2023-04-25T12:56:34;93651.28;;;14.29;67.20
79461;BME280;68929;42.666;23.324;2023-04-25T12:59:01;93657.16;;;14.36;69.27
79461;BME280;68929;42.666;23.324;2023-04-25T13:01:41;93668.69;;;13.63;65.36
79461;BME280;68929;42.666;23.324;2023-04-25T13:04:06;93668.63;;;13.53;68.65
79461;BME280;68929;42.666;23.324;2023-04-25T13:06:32;93655.63;;;13.51;71.19
79461;BME280;68929;42.666;23.324;2023-04-25T13:08:57;93644.22;;;13.19;68.30
79461;BME280;68929;42.666;23.324;2023-04-25T13:11:26;93656.69;;;13.19;69.88
79461;BME280;68929;42.666;23.324;2023-04-25T13:13:55;93663.00;;;12.86;71.16
79461;BME280;68929;42.666;23.324;2023-04-25T13:16:20;93645.38;;;12.75;72.09